首页
METAR-TAF:

METAR-TAF

机场 :

New Ulm Municipal Airport

New Ulm, 明尼蘇達州, 美国

纬度: 44-19N, 经度: 094-30W, 海拔: 308米

当前天气观测

该预报发布于20分钟前的08:36 UTC
风速6节,风向南转南东
温度 19°C
湿度 88%
气压 1017 hPa
能見度: 16.1公里
天空无云

METAR: KULM 270836Z AUTO 16006KT 10SM CLR 19/17 A3003 RMK AO2

时间: 03:56 (08:56 UTC)


TAF: 丢失

超过4000个机场的气象观测和天气预报(METAR&TAF报告)。

可查询的气象台以黄色和红色小点在地图上表示。

将鼠标移到小点上方,可查看气象台名称。

然后点击查看天气观测和预报。

如需切换地图:点击带黑十字的绿色按钮放大地图;点击带横线的绿色按钮缩小地图;或者点击绿色箭头查看邻近地区的地图。


METAR-TAF: